Time;durP1;ratioP1;P1;durP2;ratioP2;P2;SDS_P1;SDS_P2;PMS_P1;PMS_P2;Temp;Humidity;BMP_temperature;BMP_pressure;BME280_temperature;BME280_humidity;BME280_pressure;Samples;Min_cycle;Max_cycle;Signal;HPM_P1;HPM_P2
2022/06/07 00:00:39;;;;;;;4.10;1.40;;;21.30;74.10;;;;;;7364183;19;20404;-78
2022/06/07 00:03:08;;;;;;;4.00;1.90;;;21.30;74.10;;;;;;7367875;19;20932;-79
2022/06/07 00:05:40;;;;;;;1.43;1.30;;;21.40;74.60;;;;;;7372515;19;20380;-79
2022/06/07 00:08:12;;;;;;;2.03;1.40;;;21.40;74.20;;;;;;7374888;19;20532;-79
2022/06/07 00:10:42;;;;;;;2.10;1.17;;;21.40;74.50;;;;;;7366151;19;20404;-79
2022/06/07 00:13:12;;;;;;;1.97;1.73;;;21.30;74.10;;;;;;7372641;19;21003;-79
2022/06/07 00:15:42;;;;;;;1.90;1.60;;;21.70;74.80;;;;;;7369320;19;20446;-79
2022/06/07 00:18:11;;;;;;;1.40;1.30;;;21.20;73.80;;;;;;7366063;19;20376;-79
2022/06/07 00:20:43;;;;;;;1.77;1.20;;;21.30;74.40;;;;;;7357536;19;20403;-79
2022/06/07 00:23:19;;;;;;;1.70;1.60;;;21.30;74.50;;;;;;7367860;19;20413;-77
2022/06/07 00:25:52;;;;;;;1.40;1.30;;;21.10;75.90;;;;;;7368265;19;20384;-77
2022/06/07 00:28:22;;;;;;;1.60;1.50;;;21.00;75.90;;;;;;7365976;19;20463;-79
2022/06/07 00:30:53;;;;;;;2.20;1.63;;;21.00;76.00;;;;;;7364847;19;20392;-77
2022/06/07 00:33:23;;;;;;;2.83;1.63;;;20.80;75.60;;;;;;7368734;19;20405;-78
2022/06/07 00:35:53;;;;;;;1.60;1.50;;;20.90;76.20;;;;;;7363656;19;20408;-77
2022/06/07 00:38:25;;;;;;;1.90;1.70;;;20.80;76.50;;;;;;7369128;19;20391;-77
2022/06/07 00:40:55;;;;;;;1.50;1.40;;;20.90;76.90;;;;;;7362129;19;20433;-79
2022/06/07 00:43:25;;;;;;;2.90;1.53;;;20.90;76.70;;;;;;7368145;19;20416;-79
2022/06/07 00:45:55;;;;;;;1.60;1.30;;;21.10;76.60;;;;;;7367513;19;20375;-78
2022/06/07 00:48:25;;;;;;;2.63;1.70;;;20.90;76.50;;;;;;7359372;19;20442;-77
2022/06/07 00:51:00;;;;;;;2.20;1.27;;;21.00;76.90;;;;;;7365016;19;20416;-78
2022/06/07 00:53:34;;;;;;;1.83;1.70;;;21.40;77.80;;;;;;7363238;19;21985;-80
2022/06/07 00:56:25;;;;;;;1.50;1.20;;;20.90;77.20;;;;;;7361466;19;20831;-79
2022/06/07 00:58:55;;;;;;;1.97;1.30;;;21.00;77.60;;;;;;7361448;19;20931;-79
2022/06/07 01:01:26;;;;;;;4.97;1.47;;;20.90;77.00;;;;;;7365655;19;20375;-77
2022/06/07 01:03:55;;;;;;;1.80;1.43;;;20.90;77.50;;;;;;7364907;19;20531;-79
2022/06/07 01:11:57;;;;;;;2.30;1.57;;;20.80;77.50;;;;;;7361717;19;20397;-78
2022/06/07 01:14:26;;;;;;;1.40;1.30;;;20.50;79.20;;;;;;7372320;19;20384;-78
2022/06/07 01:16:56;;;;;;;2.30;1.37;;;20.80;80.80;;;;;;7362734;19;21101;-79
2022/06/07 01:19:26;;;;;;;1.90;1.30;;;20.80;81.20;;;;;;7364714;19;20420;-78
2022/06/07 01:21:58;;;;;;;1.17;1.07;;;20.80;82.00;;;;;;7363937;19;20376;-79
2022/06/07 01:24:30;;;;;;;2.00;1.33;;;20.90;81.60;;;;;;7359235;19;20411;-79
2022/06/07 01:27:08;;;;;;;1.37;0.90;;;20.80;80.70;;;;;;7367672;19;20404;-79
2022/06/07 01:29:39;;;;;;;1.67;1.40;;;20.70;80.70;;;;;;7361250;19;20415;-79
2022/06/07 01:32:10;;;;;;;1.77;1.33;;;20.60;80.80;;;;;;7367361;19;20400;-77
2022/06/07 01:34:43;;;;;;;1.33;1.13;;;20.70;81.80;;;;;;7369778;19;20434;-77
2022/06/07 01:37:17;;;;;;;1.63;1.50;;;20.60;83.10;;;;;;7364949;19;20405;-79
2022/06/07 01:42:29;;;;;;;1.50;1.37;;;20.50;84.00;;;;;;7368771;19;20980;-78
2022/06/07 01:44:59;;;;;;;1.47;0.90;;;20.50;83.90;;;;;;7367571;19;20469;-79
2022/06/07 01:47:31;;;;;;;1.37;1.27;;;20.50;83.00;;;;;;7362469;19;20931;-80
2022/06/07 01:50:05;;;;;;;1.30;1.10;;;20.40;83.70;;;;;;7361983;19;20380;-79
2022/06/07 01:52:40;;;;;;;1.87;1.00;;;20.30;83.30;;;;;;7366822;19;20400;-79
2022/06/07 01:55:17;;;;;;;2.23;1.27;;;20.30;83.40;;;;;;7357055;19;20392;-79
2022/06/07 01:58:06;;;;;;;1.50;1.40;;;20.20;83.80;;;;;;7355375;19;20544;-79
2022/06/07 02:00:39;;;;;;;2.10;1.10;;;20.60;84.70;;;;;;7375983;19;20416;-81
2022/06/07 02:03:10;;;;;;;1.40;1.30;;;20.40;83.80;;;;;;7377281;19;20423;-81
2022/06/07 02:05:40;;;;;;;1.40;1.23;;;20.80;83.80;;;;;;7366250;19;20412;-80
2022/06/07 02:08:14;;;;;;;1.30;1.20;;;20.20;83.40;;;;;;7366302;19;20443;-79
2022/06/07 02:10:44;;;;;;;1.17;1.07;;;20.10;85.60;;;;;;7372249;19;20415;-79
2022/06/07 02:13:20;;;;;;;2.97;1.10;;;19.70;84.50;;;;;;7369244;19;20954;-80
2022/06/07 02:15:50;;;;;;;2.30;1.10;;;20.00;85.40;;;;;;7367477;19;20423;-79
2022/06/07 02:18:20;;;;;;;1.87;1.00;;;19.90;86.40;;;;;;7378210;19;20908;-79
2022/06/07 02:21:00;;;;;;;1.10;1.00;;;19.90;84.60;;;;;;7373818;19;20375;-79
2022/06/07 02:23:33;;;;;;;1.73;1.47;;;20.00;85.80;;;;;;7374164;19;20407;-80
2022/06/07 02:26:06;;;;;;;1.07;0.97;;;19.80;83.90;;;;;;7371028;19;20407;-80
2022/06/07 02:28:38;;;;;;;2.40;1.10;;;19.70;84.40;;;;;;7374335;19;20499;-80
2022/06/07 02:31:10;;;;;;;1.43;1.20;;;19.70;85.40;;;;;;7375852;19;20505;-80
2022/06/07 02:33:42;;;;;;;1.57;1.07;;;19.80;85.00;;;;;;7376430;19;20379;-80
2022/06/07 02:36:13;;;;;;;2.20;1.13;;;19.80;85.70;;;;;;7374159;19;21749;-80
2022/06/07 02:38:47;;;;;;;1.80;1.00;;;19.80;85.60;;;;;;7372459;19;20976;-80
2022/06/07 02:41:21;;;;;;;1.80;1.37;;;20.40;83.70;;;;;;7371374;19;20415;-80
2022/06/07 02:43:51;;;;;;;1.17;1.07;;;19.70;85.00;;;;;;7373271;19;20406;-79
2022/06/07 02:46:22;;;;;;;1.57;1.17;;;19.60;85.90;;;;;;7375646;19;20513;-80
2022/06/07 02:48:52;;;;;;;2.87;1.17;;;19.60;87.00;;;;;;7374738;19;20424;-79
2022/06/07 02:51:22;;;;;;;2.20;1.10;;;19.60;85.90;;;;;;7368752;19;20880;-79
2022/06/07 02:53:57;;;;;;;2.00;1.07;;;19.60;87.20;;;;;;7375748;19;20430;-79
2022/06/07 02:56:29;;;;;;;1.53;1.17;;;19.60;86.80;;;;;;7371061;19;20809;-78
2022/06/07 02:58:59;;;;;;;1.50;1.10;;;19.40;88.30;;;;;;7369639;19;21264;-78
2022/06/07 03:01:31;;;;;;;1.30;1.20;;;19.20;90.00;;;;;;7371008;19;20365;-78
2022/06/07 03:04:02;;;;;;;1.83;1.20;;;18.80;91.20;;;;;;7373135;19;20422;-78
2022/06/07 03:06:35;;;;;;;1.00;0.90;;;18.60;92.00;;;;;;7366824;19;21232;-78
2022/06/07 03:09:08;;;;;;;1.37;1.23;;;18.50;92.50;;;;;;7365786;19;21041;-79
2022/06/07 03:11:38;;;;;;;2.33;0.90;;;18.60;93.10;;;;;;7370905;19;20411;-79
2022/06/07 03:14:09;;;;;;;1.60;1.10;;;18.60;92.80;;;;;;7370857;19;21247;-79
2022/06/07 03:16:39;;;;;;;0.80;0.80;;;18.40;92.50;;;;;;7369369;19;20412;-79
2022/06/07 03:19:09;;;;;;;1.40;1.30;;;18.60;92.80;;;;;;7370283;19;20416;-78
2022/06/07 03:21:43;;;;;;;1.40;1.07;;;18.50;92.40;;;;;;7369254;19;20404;-79
2022/06/07 03:24:15;;;;;;;0.80;0.80;;;18.70;92.90;;;;;;7369017;19;20412;-81
2022/06/07 03:26:45;;;;;;;0.97;0.70;;;18.50;92.30;;;;;;7371368;19;20437;-81
2022/06/07 03:29:18;;;;;;;2.13;1.07;;;18.30;91.80;;;;;;7370454;19;20392;-81
2022/06/07 03:31:48;;;;;;;0.90;0.90;;;18.70;91.00;;;;;;7371981;19;21025;-80
2022/06/07 03:34:22;;;;;;;3.23;0.83;;;18.90;90.30;;;;;;7367652;19;20428;-79
2022/06/07 03:36:53;;;;;;;0.93;0.73;;;19.30;90.70;;;;;;7368470;19;20412;-79
2022/06/07 03:39:27;;;;;;;2.53;1.07;;;19.10;91.00;;;;;;7366536;19;21480;-79
2022/06/07 03:42:06;;;;;;;3.53;1.23;;;19.10;91.60;;;;;;7365174;19;20384;-79
2022/06/07 03:44:37;;;;;;;2.50;1.13;;;19.10;91.10;;;;;;7361643;19;20406;-79
2022/06/07 03:47:19;;;;;;;2.77;0.90;;;19.20;90.80;;;;;;7366705;19;20384;-79
2022/06/07 03:49:51;;;;;;;0.97;0.87;;;19.10;91.20;;;;;;7366223;19;20407;-76
2022/06/07 03:52:23;;;;;;;2.30;0.90;;;19.00;90.00;;;;;;7369855;19;20952;-77
2022/06/07 03:54:55;;;;;;;3.90;0.93;;;18.60;90.50;;;;;;7368438;19;20504;-76
2022/06/07 03:57:28;;;;;;;1.93;1.13;;;18.40;91.00;;;;;;7365310;19;21481;-76
2022/06/07 04:00:01;;;;;;;0.80;0.80;;;18.20;91.20;;;;;;7368099;19;20400;-76
2022/06/07 04:02:33;;;;;;;3.73;0.90;;;18.10;91.20;;;;;;7363283;19;20459;-75
2022/06/07 04:05:03;;;;;;;0.73;0.73;;;18.30;90.90;;;;;;7358941;19;21097;-75
2022/06/07 04:10:19;;;;;;;1.53;0.70;;;18.50;90.50;;;;;;7361117;19;20416;-77
2022/06/07 04:12:52;;;;;;;2.77;0.97;;;18.10;90.70;;;;;;7354041;19;20400;-75
2022/06/07 04:15:24;;;;;;;1.43;0.97;;;18.00;91.20;;;;;;7361970;19;20548;-75
2022/06/07 04:17:56;;;;;;;3.30;1.03;;;18.00;91.60;;;;;;7367148;19;20404;-75
2022/06/07 04:20:29;;;;;;;1.93;1.30;;;17.80;92.20;;;;;;7352020;19;20883;-75
2022/06/07 04:23:01;;;;;;;2.10;0.77;;;17.70;92.80;;;;;;7363271;19;22588;-78
2022/06/07 04:25:41;;;;;;;4.53;1.20;;;17.80;92.70;;;;;;7366590;19;20380;-75
2022/06/07 04:28:16;;;;;;;1.70;0.83;;;17.80;92.60;;;;;;7361965;19;21880;-75
2022/06/07 04:30:50;;;;;;;1.10;1.00;;;18.00;92.40;;;;;;7367048;19;20930;-80
2022/06/07 04:33:24;;;;;;;2.60;1.90;;;18.20;92.40;;;;;;7366569;19;20396;-80
2022/06/07 04:35:57;;;;;;;5.43;1.13;;;18.60;91.60;;;;;;7356803;19;20433;-80
2022/06/07 04:38:29;;;;;;;1.57;1.00;;;18.80;90.90;;;;;;7366368;19;20372;-78
2022/06/07 04:41:02;;;;;;;1.10;0.97;;;19.00;90.60;;;;;;7365044;19;20412;-75
2022/06/07 04:43:33;;;;;;;1.63;1.10;;;19.00;90.10;;;;;;7368392;19;20384;-76
2022/06/07 04:46:05;;;;;;;2.80;1.10;;;19.00;90.20;;;;;;7366653;19;20940;-78
2022/06/07 04:48:36;;;;;;;2.30;1.63;;;18.90;90.60;;;;;;7391115;19;20464;-78
2022/06/07 04:51:15;;;;;;;6.03;1.77;;;18.90;90.40;;;;;;7401082;19;20411;-78
2022/06/07 04:53:49;;;;;;;1.03;0.70;;;19.00;90.70;;;;;;7409240;19;20416;-77
2022/06/07 04:56:25;;;;;;;0.80;0.70;;;18.70;91.00;;;;;;7405655;19;20420;-77
2022/06/07 04:58:55;;;;;;;1.10;1.00;;;18.80;91.80;;;;;;7403894;19;20505;-78
2022/06/07 05:01:28;;;;;;;1.30;0.80;;;18.20;92.70;;;;;;7396820;19;20680;-81
2022/06/07 05:04:00;;;;;;;2.03;1.00;;;18.30;93.40;;;;;;7380010;19;20733;-81
2022/06/07 05:06:32;;;;;;;1.50;1.13;;;18.30;94.30;;;;;;7372586;19;20371;-81
2022/06/07 05:09:15;;;;;;;1.10;0.80;;;18.10;94.80;;;;;;7379338;19;20408;-81
2022/06/07 05:11:48;;;;;;;2.17;1.10;;;18.00;94.30;;;;;;7385058;19;20397;-82
2022/06/07 05:14:19;;;;;;;3.23;0.93;;;18.20;94.50;;;;;;7386251;19;20379;-82
2022/06/07 05:16:50;;;;;;;1.97;1.00;;;18.30;94.10;;;;;;7385115;19;20384;-83
2022/06/07 05:19:25;;;;;;;1.03;0.90;;;18.30;94.40;;;;;;7375926;19;20408;-81
2022/06/07 05:22:04;;;;;;;1.97;1.43;;;18.50;94.20;;;;;;7374434;19;21514;-81
2022/06/07 05:24:38;;;;;;;3.57;1.67;;;18.60;94.00;;;;;;7377664;19;20442;-82
2022/06/07 05:27:14;;;;;;;5.83;4.30;;;18.80;93.90;;;;;;7374800;19;20409;-82
2022/06/07 05:29:49;;;;;;;6.03;2.10;;;19.60;93.70;;;;;;7373874;19;21036;-81
2022/06/07 05:32:29;;;;;;;1.77;1.00;;;19.10;92.80;;;;;;7372353;19;20371;-82
2022/06/07 05:35:03;;;;;;;1.20;0.87;;;19.00;93.80;;;;;;7380290;19;20379;-81
2022/06/07 05:37:34;;;;;;;1.43;1.00;;;18.90;93.70;;;;;;7378725;19;20446;-81
2022/06/07 05:40:24;;;;;;;1.20;0.90;;;19.00;94.30;;;;;;7381273;19;20435;-82
2022/06/07 05:42:58;;;;;;;2.33;1.07;;;19.00;94.30;;;;;;7377971;19;20425;-81
2022/06/07 05:45:36;;;;;;;2.93;1.37;;;18.90;94.40;;;;;;7381302;19;21106;-81
2022/06/07 05:48:12;;;;;;;1.67;1.03;;;18.90;93.90;;;;;;7377087;19;20393;-81
2022/06/07 05:50:50;;;;;;;1.50;1.20;;;19.10;94.10;;;;;;7377961;19;20528;-80
2022/06/07 05:53:23;;;;;;;2.20;1.30;;;19.10;92.80;;;;;;7374935;19;20423;-81
2022/06/07 05:55:54;;;;;;;3.10;1.53;;;19.20;92.30;;;;;;7377208;19;21057;-81
2022/06/07 05:58:27;;;;;;;4.30;1.60;;;19.30;91.80;;;;;;7376320;19;20424;-82
2022/06/07 06:00:57;;;;;;;1.20;1.00;;;19.50;91.50;;;;;;7377162;19;20933;-78
2022/06/07 06:03:29;;;;;;;3.30;2.73;;;19.60;91.30;;;;;;7376320;19;20442;-78
2022/06/07 06:06:01;;;;;;;3.87;3.17;;;19.70;91.20;;;;;;7376351;19;20375;-78
2022/06/07 06:11:24;;;;;;;1.50;1.40;;;20.00;90.40;;;;;;7375156;19;21198;-78
2022/06/07 06:14:10;;;;;;;1.03;0.97;;;19.90;90.60;;;;;;7374362;19;20491;-78
2022/06/07 06:16:44;;;;;;;1.43;0.90;;;20.00;90.50;;;;;;7373725;19;20400;-78
2022/06/07 06:19:19;;;;;;;2.00;1.40;;;19.90;90.60;;;;;;7373651;19;21061;-78
2022/06/07 06:21:50;;;;;;;5.40;2.47;;;20.00;90.60;;;;;;7375467;19;21034;-78
2022/06/07 06:24:25;;;;;;;2.20;1.30;;;20.00;89.90;;;;;;7375034;19;20404;-78
2022/06/07 06:26:58;;;;;;;1.30;1.07;;;20.10;90.00;;;;;;7374666;19;20408;-78
2022/06/07 06:29:36;;;;;;;2.13;1.30;;;20.00;90.30;;;;;;7376715;19;21081;-78
2022/06/07 06:32:07;;;;;;;1.10;1.00;;;19.90;90.30;;;;;;7374026;19;21263;-78
2022/06/07 06:34:39;;;;;;;2.90;1.37;;;19.90;89.80;;;;;;7374310;19;20412;-78
2022/06/07 06:37:11;;;;;;;2.53;1.40;;;20.00;89.80;;;;;;7373342;19;20420;-78
2022/06/07 06:39:45;;;;;;;3.60;2.90;;;20.00;90.00;;;;;;7377787;19;20395;-78
2022/06/07 06:42:15;;;;;;;4.67;1.43;;;19.90;90.00;;;;;;7373305;19;20464;-78
2022/06/07 06:45:10;;;;;;;4.90;1.33;;;20.10;90.00;;;;;;7372583;19;20424;-78
2022/06/07 06:47:44;;;;;;;2.27;1.30;;;20.40;89.50;;;;;;7371194;19;20411;-78
2022/06/07 06:50:14;;;;;;;2.07;1.40;;;20.60;87.40;;;;;;7374510;19;20400;-79
2022/06/07 06:52:44;;;;;;;2.53;2.17;;;21.00;85.90;;;;;;7373655;19;20407;-78
2022/06/07 06:55:14;;;;;;;5.90;4.53;;;20.80;85.40;;;;;;7375178;19;21070;-78
2022/06/07 06:57:44;;;;;;;2.63;1.43;;;20.80;86.20;;;;;;7372903;19;20967;-79
2022/06/07 07:00:18;;;;;;;2.37;1.30;;;20.80;83.70;;;;;;7374135;19;20841;-78
2022/06/07 07:02:48;;;;;;;1.30;0.93;;;20.70;83.80;;;;;;7374020;19;21006;-78
2022/06/07 07:05:20;;;;;;;1.50;1.00;;;20.80;85.10;;;;;;7375745;19;20428;-78
2022/06/07 07:07:59;;;;;;;1.57;1.20;;;20.90;83.90;;;;;;7370856;19;21169;-79
2022/06/07 07:10:32;;;;;;;2.03;1.60;;;21.00;84.20;;;;;;7370699;19;20387;-78
2022/06/07 07:13:02;;;;;;;1.80;1.10;;;21.00;82.80;;;;;;7372027;19;20373;-78
2022/06/07 07:15:40;;;;;;;1.00;0.90;;;21.10;82.00;;;;;;7367937;19;20432;-78
2022/06/07 07:18:16;;;;;;;0.83;0.70;;;21.10;81.80;;;;;;7369213;19;20389;-78
2022/06/07 07:20:52;;;;;;;1.27;0.97;;;21.20;78.70;;;;;;7374389;19;20407;-78
2022/06/07 07:23:24;;;;;;;1.20;1.10;;;21.20;79.10;;;;;;7374547;19;20439;-77
2022/06/07 07:25:54;;;;;;;1.70;1.20;;;21.20;79.10;;;;;;7370444;19;20415;-76
2022/06/07 07:28:23;;;;;;;2.20;1.20;;;21.20;79.60;;;;;;7366714;19;20396;-76
2022/06/07 07:31:03;;;;;;;1.20;1.00;;;21.20;78.20;;;;;;7368369;19;20517;-76
2022/06/07 07:33:33;;;;;;;1.20;1.10;;;21.30;79.00;;;;;;7371488;19;20383;-76
2022/06/07 07:36:06;;;;;;;1.80;1.20;;;21.30;78.80;;;;;;7375711;19;20396;-76
2022/06/07 07:38:37;;;;;;;1.17;1.00;;;21.50;77.30;;;;;;7370490;19;21412;-76
2022/06/07 07:41:18;;;;;;;1.50;1.30;;;21.50;77.60;;;;;;7367725;19;20446;-75
2022/06/07 07:43:49;;;;;;;1.20;1.10;;;21.70;77.40;;;;;;7392416;19;20404;-76
2022/06/07 07:46:24;;;;;;;1.40;0.93;;;21.60;78.40;;;;;;7407710;19;20479;-76
2022/06/07 07:48:54;;;;;;;1.80;0.90;;;21.80;78.10;;;;;;7410070;19;20439;-76
2022/06/07 07:51:26;;;;;;;1.50;1.20;;;21.90;77.30;;;;;;7412980;19;20412;-76
2022/06/07 07:53:59;;;;;;;1.00;0.90;;;22.10;76.50;;;;;;7413474;19;20397;-76
2022/06/07 07:56:29;;;;;;;0.80;0.70;;;22.40;73.50;;;;;;7395856;19;20756;-76
2022/06/07 07:59:03;;;;;;;2.50;1.43;;;22.40;72.90;;;;;;7391493;19;20442;-76
2022/06/07 08:01:38;;;;;;;0.73;0.70;;;22.30;74.30;;;;;;7391220;19;20439;-76
2022/06/07 08:04:10;;;;;;;2.90;1.10;;;22.30;70.60;;;;;;7393116;19;20999;-76
2022/06/07 08:06:46;;;;;;;1.70;1.00;;;22.20;72.40;;;;;;7392898;19;20462;-76
2022/06/07 08:09:16;;;;;;;2.90;1.33;;;22.20;72.90;;;;;;7390567;19;20415;-76
2022/06/07 08:11:47;;;;;;;2.27;1.87;;;22.20;70.70;;;;;;7390264;19;20438;-76
2022/06/07 08:14:23;;;;;;;1.63;1.13;;;22.20;69.20;;;;;;7383552;19;20368;-76
2022/06/07 08:16:55;;;;;;;1.90;1.00;;;22.20;67.00;;;;;;7378623;19;20423;-76
2022/06/07 08:19:25;;;;;;;1.57;1.07;;;22.20;66.50;;;;;;7375427;19;20436;-75
2022/06/07 08:21:54;;;;;;;1.87;0.87;;;22.50;66.40;;;;;;7376205;19;20487;-75
2022/06/07 08:24:26;;;;;;;0.80;0.80;;;22.50;66.60;;;;;;7375718;19;20400;-76
2022/06/07 08:26:55;;;;;;;2.80;2.10;;;22.50;66.80;;;;;;7375022;19;21165;-76
2022/06/07 08:29:25;;;;;;;7.90;6.23;;;22.60;66.80;;;;;;7377337;19;20408;-76
2022/06/07 08:31:57;;;;;;;2.63;1.00;;;22.70;66.80;;;;;;7373750;19;20410;-76
2022/06/07 08:39:54;;;;;;;1.83;1.50;;;22.80;66.30;;;;;;7376143;19;20412;-75
2022/06/07 08:42:32;;;;;;;2.40;1.80;;;22.60;64.40;;;;;;7370248;19;20434;-76
2022/06/07 08:45:04;;;;;;;3.90;3.00;;;22.80;63.60;;;;;;7370614;19;20382;-76
2022/06/07 08:47:44;;;;;;;1.90;1.80;;;22.80;63.40;;;;;;7370960;19;20851;-76
2022/06/07 08:50:22;;;;;;;2.23;1.70;;;22.90;64.10;;;;;;7370217;19;20371;-76
2022/06/07 08:52:55;;;;;;;2.10;1.23;;;22.90;62.80;;;;;;7373041;19;20967;-76
2022/06/07 08:55:30;;;;;;;2.77;1.77;;;22.70;64.10;;;;;;7374417;19;20412;-76
2022/06/07 08:58:04;;;;;;;2.30;1.47;;;22.70;65.00;;;;;;7368742;19;20468;-76
2022/06/07 09:00:36;;;;;;;1.73;1.30;;;23.10;65.80;;;;;;7368574;19;20863;-76
2022/06/07 09:03:39;;;;;;;3.07;1.27;;;23.00;65.90;;;;;;7368075;19;20432;-76
2022/06/07 09:06:25;;;;;;;1.17;0.70;;;23.30;64.60;;;;;;7371838;19;20910;-76
2022/06/07 09:08:57;;;;;;;3.80;1.40;;;23.60;63.10;;;;;;7369440;19;20392;-76
2022/06/07 09:14:11;;;;;;;1.07;0.97;;;24.00;61.00;;;;;;7369476;19;21509;-76
2022/06/07 09:16:43;;;;;;;0.70;0.70;;;24.30;58.70;;;;;;7373044;19;20408;-76
2022/06/07 09:19:30;;;;;;;0.90;0.70;;;24.30;58.00;;;;;;7370225;19;20380;-76
2022/06/07 09:22:03;;;;;;;1.33;0.80;;;24.20;58.40;;;;;;7371079;19;20423;-76
2022/06/07 09:24:35;;;;;;;1.60;1.03;;;23.90;58.70;;;;;;7369295;19;21164;-76
2022/06/07 09:27:24;;;;;;;1.37;0.80;;;23.80;59.00;;;;;;7363871;19;21315;-76
2022/06/07 09:29:56;;;;;;;1.23;1.13;;;24.30;58.30;;;;;;7368487;19;21177;-76
2022/06/07 09:32:29;;;;;;;0.90;0.80;;;24.50;59.00;;;;;;7367816;19;20412;-76
2022/06/07 09:35:05;;;;;;;1.20;1.10;;;24.60;57.90;;;;;;7368437;19;20956;-76
2022/06/07 09:37:43;;;;;;;1.37;0.87;;;24.50;58.50;;;;;;7364102;19;20379;-76
2022/06/07 09:40:30;;;;;;;1.50;0.83;;;24.50;56.90;;;;;;7362841;19;20955;-75
2022/06/07 09:43:08;;;;;;;3.13;1.40;;;24.20;57.70;;;;;;7367372;19;21093;-76
2022/06/07 09:45:41;;;;;;;1.27;0.97;;;24.00;57.40;;;;;;7369468;19;20423;-76
2022/06/07 09:48:31;;;;;;;1.00;0.80;;;23.80;57.40;;;;;;7371536;19;20380;-76
2022/06/07 09:51:12;;;;;;;1.27;0.63;;;23.80;57.40;;;;;;7368779;19;20836;-76
2022/06/07 09:53:45;;;;;;;1.13;1.00;;;23.60;56.50;;;;;;7366577;19;20896;-76
2022/06/07 09:56:26;;;;;;;1.23;0.80;;;23.70;57.70;;;;;;7368525;19;20928;-76
2022/06/07 09:59:21;;;;;;;1.40;1.00;;;24.00;58.20;;;;;;7365312;19;20449;-76
2022/06/07 10:01:58;;;;;;;1.17;1.07;;;24.20;57.50;;;;;;7366364;19;20376;-76
2022/06/07 10:04:39;;;;;;;1.50;1.37;;;24.20;55.70;;;;;;7369186;19;20400;-76
2022/06/07 10:07:18;;;;;;;2.73;0.77;;;24.30;55.10;;;;;;7370759;19;20409;-76
2022/06/07 10:10:02;;;;;;;0.70;0.70;;;24.30;54.40;;;;;;7369461;19;20408;-76
2022/06/07 10:12:38;;;;;;;1.50;0.80;;;24.20;55.40;;;;;;7365403;19;21396;-76
2022/06/07 10:15:25;;;;;;;46.20;7.07;;;24.00;55.70;;;;;;7370823;19;20418;-76
2022/06/07 10:18:08;;;;;;;3.67;1.43;;;24.10;55.00;;;;;;7368352;19;20417;-76
2022/06/07 10:20:56;;;;;;;1.50;0.83;;;24.10;56.10;;;;;;7373375;19;20426;-76
2022/06/07 10:23:49;;;;;;;4.43;1.17;;;24.30;56.70;;;;;;7349255;19;20412;-76
2022/06/07 10:26:28;;;;;;;2.70;1.70;;;24.30;55.70;;;;;;7372296;19;20843;-76
2022/06/07 10:29:16;;;;;;;2.77;1.80;;;24.20;54.70;;;;;;7372346;19;20414;-76
2022/06/07 10:31:54;;;;;;;0.90;0.77;;;24.20;54.60;;;;;;7374641;19;20404;-76
2022/06/07 10:34:35;;;;;;;3.03;1.80;;;24.10;54.10;;;;;;7378639;19;20412;-76
2022/06/07 10:37:17;;;;;;;3.40;2.03;;;24.00;54.00;;;;;;7372267;19;20419;-76
2022/06/07 10:39:59;;;;;;;1.50;0.93;;;24.10;53.70;;;;;;7371931;19;20392;-76
2022/06/07 10:42:39;;;;;;;1.50;0.97;;;24.10;54.10;;;;;;7369660;19;20485;-76
2022/06/07 10:45:16;;;;;;;1.67;0.90;;;24.00;54.60;;;;;;7376327;19;20450;-76
2022/06/07 10:47:52;;;;;;;1.53;0.97;;;24.00;54.00;;;;;;7373221;19;21706;-76
2022/06/07 10:50:27;;;;;;;1.00;0.80;;;24.00;54.40;;;;;;7381879;19;20411;-76
2022/06/07 10:53:06;;;;;;;1.20;0.90;;;24.00;55.20;;;;;;7395707;19;20370;-76
2022/06/07 10:55:46;;;;;;;1.73;0.70;;;23.90;55.30;;;;;;7395947;19;20487;-76
2022/06/07 10:58:34;;;;;;;1.53;0.90;;;23.70;55.80;;;;;;7394600;19;20447;-77
2022/06/07 11:01:17;;;;;;;3.10;2.60;;;23.50;57.20;;;;;;7391195;19;21043;-76
2022/06/07 11:03:57;;;;;;;1290.50;156.67;;;23.50;57.30;;;;;;7383578;19;20404;-76
2022/06/07 11:09:24;;;;;;;14.43;5.63;;;23.50;56.90;;;;;;7379442;19;20410;-76
2022/06/07 11:11:59;;;;;;;6.33;1.10;;;23.60;57.00;;;;;;7378615;19;20896;-76
2022/06/07 11:14:58;;;;;;;2.97;0.80;;;23.70;57.80;;;;;;7379227;19;20408;-76
2022/06/07 11:17:34;;;;;;;8.00;2.10;;;23.90;58.00;;;;;;7371825;19;20426;-77
2022/06/07 11:20:17;;;;;;;1.87;0.90;;;24.10;57.90;;;;;;7374528;19;20729;-76
2022/06/07 11:22:59;;;;;;;1.20;0.80;;;24.30;56.60;;;;;;7378236;19;20390;-75
2022/06/07 11:25:34;;;;;;;0.83;0.80;;;24.00;55.80;;;;;;7373531;19;20901;-75
2022/06/07 11:28:12;;;;;;;2.20;0.93;;;23.90;57.00;;;;;;7374783;19;20858;-76
2022/06/07 11:30:49;;;;;;;1.37;0.90;;;23.90;57.20;;;;;;7372231;19;20408;-76
2022/06/07 11:33:42;;;;;;;4.10;2.53;;;24.00;56.50;;;;;;7376582;19;20408;-76
2022/06/07 11:36:37;;;;;;;2.20;1.27;;;24.10;56.40;;;;;;7372120;19;20982;-76
2022/06/07 11:39:23;;;;;;;2.60;1.37;;;24.30;57.30;;;;;;7372225;19;20571;-76
2022/06/07 11:41:55;;;;;;;5.77;1.60;;;24.80;58.40;;;;;;7373022;19;20388;-76
2022/06/07 11:44:59;;;;;;;3.47;0.93;;;25.10;58.40;;;;;;7373362;19;20415;-76
2022/06/07 11:47:37;;;;;;;3.10;1.30;;;25.50;55.80;;;;;;7368811;19;20379;-76
2022/06/07 11:50:31;;;;;;;2.30;1.10;;;25.40;55.50;;;;;;7372235;19;20383;-76
2022/06/07 11:53:22;;;;;;;1.40;1.00;;;25.30;54.60;;;;;;7366124;19;20408;-76
2022/06/07 11:55:58;;;;;;;2.20;0.90;;;25.10;56.00;;;;;;7366737;19;20936;-76
2022/06/07 11:58:55;;;;;;;1.67;1.00;;;25.10;55.90;;;;;;7366313;19;21094;-76
2022/06/07 12:01:48;;;;;;;0.80;0.80;;;24.90;56.10;;;;;;7373558;19;20492;-76
2022/06/07 12:04:55;;;;;;;1.53;0.70;;;24.70;56.50;;;;;;7373872;19;20412;-76
2022/06/07 12:07:32;;;;;;;2.60;0.97;;;24.70;56.30;;;;;;7370898;19;21166;-77
2022/06/07 12:10:14;;;;;;;2.00;1.10;;;24.70;57.40;;;;;;7371711;19;20415;-76
2022/06/07 12:12:44;;;;;;;2.10;1.13;;;24.40;58.00;;;;;;7373835;19;21398;-76
2022/06/07 12:15:21;;;;;;;1.73;0.90;;;24.20;58.50;;;;;;7370287;19;20911;-76
2022/06/07 12:18:00;;;;;;;1.50;1.03;;;24.30;58.00;;;;;;7370593;19;20963;-76
2022/06/07 12:20:33;;;;;;;1.50;1.03;;;24.00;59.70;;;;;;7367749;19;21247;-76
2022/06/07 12:23:15;;;;;;;2.10;1.20;;;23.80;59.80;;;;;;7374366;19;20380;-76
2022/06/07 12:25:55;;;;;;;1.43;1.20;;;23.80;59.40;;;;;;7370166;19;20919;-76
2022/06/07 12:28:27;;;;;;;2.83;1.17;;;23.80;59.60;;;;;;7375290;19;20376;-76
2022/06/07 12:30:57;;;;;;;3.43;1.30;;;23.90;61.50;;;;;;7373192;19;20388;-77
2022/06/07 12:33:33;;;;;;;1.80;1.30;;;24.40;60.90;;;;;;7375341;19;20458;-76
2022/06/07 12:36:16;;;;;;;1.50;1.20;;;24.80;59.60;;;;;;7373729;19;20404;-76
2022/06/07 12:38:48;;;;;;;0.87;0.80;;;24.90;58.00;;;;;;7371731;19;20395;-76
2022/06/07 12:41:22;;;;;;;1.20;1.10;;;25.00;57.90;;;;;;7371693;19;20451;-76
2022/06/07 12:43:54;;;;;;;3.70;1.47;;;24.80;57.80;;;;;;7373282;19;20496;-77
2022/06/07 12:46:27;;;;;;;2.07;1.17;;;24.80;58.20;;;;;;7370676;19;20401;-76
2022/06/07 12:49:01;;;;;;;1.50;0.80;;;24.80;57.90;;;;;;7372441;19;20422;-76
2022/06/07 12:51:35;;;;;;;1.17;0.80;;;25.00;57.40;;;;;;7371000;19;20400;-76
2022/06/07 12:54:09;;;;;;;2.30;1.10;;;24.90;57.50;;;;;;7371872;19;20969;-76
2022/06/07 12:56:43;;;;;;;2.20;1.50;;;24.90;57.40;;;;;;7371591;19;20425;-77
2022/06/07 12:59:23;;;;;;;2.97;1.10;;;25.00;57.70;;;;;;7369365;19;20436;-77
2022/06/07 13:01:54;;;;;;;2.80;1.17;;;25.10;57.10;;;;;;7372327;19;20483;-77
2022/06/07 13:04:32;;;;;;;2.23;1.20;;;25.20;56.90;;;;;;7369416;19;20637;-76
2022/06/07 13:07:18;;;;;;;3.10;1.00;;;25.30;56.90;;;;;;7370726;19;20507;-77
2022/06/07 13:09:49;;;;;;;5.07;1.67;;;25.30;57.10;;;;;;7370749;19;20894;-76
2022/06/07 13:12:27;;;;;;;1.80;1.13;;;25.40;58.40;;;;;;7371075;19;20388;-76
2022/06/07 13:14:56;;;;;;;2.27;0.90;;;25.50;57.80;;;;;;7371603;19;20853;-76
2022/06/07 13:17:33;;;;;;;1.10;0.97;;;25.50;57.60;;;;;;7345432;19;20448;-76
2022/06/07 13:20:08;;;;;;;2.07;1.37;;;25.40;57.40;;;;;;7376658;19;20424;-76
2022/06/07 13:22:41;;;;;;;1.80;1.00;;;25.30;56.90;;;;;;7415367;19;20423;-76
2022/06/07 13:25:21;;;;;;;2.60;1.00;;;25.10;58.20;;;;;;7412824;19;20423;-76
2022/06/07 13:27:53;;;;;;;2.73;1.00;;;25.30;56.50;;;;;;7410121;19;20482;-76
2022/06/07 13:30:36;;;;;;;2.00;1.07;;;25.50;57.20;;;;;;7414351;19;21455;-76
2022/06/07 13:33:30;;;;;;;4.83;1.27;;;25.60;56.30;;;;;;7414852;19;20421;-75
2022/06/07 13:36:05;;;;;;;1.00;0.90;;;25.50;55.80;;;;;;7395511;19;20904;-76
2022/06/07 13:38:39;;;;;;;2.97;1.10;;;25.40;56.40;;;;;;7392212;19;20387;-75
2022/06/07 13:41:22;;;;;;;1.60;1.10;;;25.50;57.60;;;;;;7389490;19;20364;-75
2022/06/07 13:43:56;;;;;;;1.23;1.10;;;25.50;56.60;;;;;;7392829;19;20363;-76
2022/06/07 13:46:28;;;;;;;3.03;2.10;;;25.40;57.50;;;;;;7388329;19;20419;-76
2022/06/07 13:55:43;;;;;;;1.60;1.00;;;25.70;55.60;;;;;;7371739;19;20968;-82
2022/06/07 13:58:12;;;;;;;1.63;1.40;;;26.00;54.30;;;;;;7362845;19;20420;-81